createdAt,value
2023-05-06T00:00:56.037Z,19.00
2023-05-06T00:03:58.543Z,19.00
2023-05-06T00:07:01.102Z,19.00
2023-05-06T00:10:04.253Z,19.00
2023-05-06T00:13:06.512Z,19.00
2023-05-06T00:16:08.850Z,18.80
2023-05-06T00:19:11.001Z,18.90
2023-05-06T00:22:13.110Z,18.80
2023-05-06T00:25:15.379Z,18.80
2023-05-06T00:28:18.501Z,18.80
2023-05-06T00:31:20.651Z,18.80
2023-05-06T00:34:23.522Z,18.90
2023-05-06T00:37:25.658Z,18.90
2023-05-06T00:40:27.771Z,18.90
2023-05-06T00:43:29.957Z,18.90
2023-05-06T00:46:32.305Z,18.90
2023-05-06T00:49:34.620Z,18.90
2023-05-06T00:52:37.044Z,18.90
2023-05-06T00:55:40.754Z,18.80
2023-05-06T00:58:42.935Z,18.80
2023-05-06T01:01:45.058Z,18.80
2023-05-06T01:04:47.440Z,18.80
2023-05-06T01:07:58.491Z,18.80
2023-05-06T01:11:17.150Z,18.80
2023-05-06T01:14:53.065Z,18.80
2023-05-06T01:17:58.907Z,18.80
2023-05-06T01:21:02.081Z,18.80
2023-05-06T01:24:04.351Z,18.80
2023-05-06T01:27:08.243Z,18.80
2023-05-06T01:30:10.745Z,18.80
2023-05-06T01:33:38.705Z,18.80
2023-05-06T01:37:07.059Z,18.80
2023-05-06T01:40:10.308Z,18.80
2023-05-06T01:43:14.633Z,18.80
2023-05-06T01:46:20.402Z,18.80
2023-05-06T01:49:26.601Z,18.70
2023-05-06T01:52:29.026Z,18.80
2023-05-06T01:55:32.314Z,18.80
2023-05-06T01:58:34.615Z,18.70
2023-05-06T02:01:37.949Z,18.70
2023-05-06T02:04:40.105Z,18.80
2023-05-06T02:07:42.092Z,18.80
2023-05-06T02:10:45.090Z,18.80
2023-05-06T02:13:47.246Z,18.80
2023-05-06T02:16:49.239Z,18.80
2023-05-06T02:19:51.534Z,18.70
2023-05-06T02:22:53.726Z,18.70
2023-05-06T02:25:58.206Z,18.60
2023-05-06T02:29:00.554Z,18.70
2023-05-06T02:32:02.830Z,18.70
2023-05-06T02:35:06.394Z,18.70
2023-05-06T02:38:08.893Z,18.70
2023-05-06T02:41:11.046Z,18.50
2023-05-06T02:44:13.586Z,18.40
2023-05-06T02:47:16.119Z,18.50
2023-05-06T02:50:18.497Z,18.50
2023-05-06T02:53:20.652Z,18.50
2023-05-06T02:56:22.851Z,18.50
2023-05-06T02:59:24.961Z,18.50
2023-05-06T03:02:28.094Z,18.60
2023-05-06T03:05:30.288Z,18.50
2023-05-06T03:08:32.806Z,18.50
2023-05-06T03:11:35.752Z,18.50
2023-05-06T03:14:37.844Z,18.50
2023-05-06T03:17:40.274Z,18.50
2023-05-06T03:20:42.621Z,18.50
2023-05-06T03:23:46.486Z,18.50
2023-05-06T03:26:55.990Z,18.60
2023-05-06T03:30:02.156Z,18.60
2023-05-06T03:33:04.301Z,18.50
2023-05-06T03:36:06.887Z,18.50
2023-05-06T03:39:09.213Z,18.50
2023-05-06T03:42:11.373Z,18.50
2023-05-06T03:45:13.703Z,18.50
2023-05-06T03:48:15.980Z,18.50
2023-05-06T03:51:18.330Z,18.50
2023-05-06T03:54:20.694Z,18.50
2023-05-06T03:57:22.837Z,18.50
2023-05-06T04:00:25.540Z,18.50
2023-05-06T04:03:27.706Z,18.50
2023-05-06T04:06:29.866Z,18.50
2023-05-06T04:09:33.539Z,18.60
2023-05-06T04:12:36.031Z,18.60
2023-05-06T04:15:45.255Z,18.50
2023-05-06T04:18:58.519Z,18.60
2023-05-06T04:22:02.636Z,18.50
2023-05-06T04:25:05.583Z,18.50
2023-05-06T04:28:07.637Z,18.60
2023-05-06T04:31:10.706Z,18.50
2023-05-06T04:34:12.839Z,18.50
2023-05-06T04:37:15.451Z,18.50
2023-05-06T04:40:18.055Z,18.50
2023-05-06T04:43:20.216Z,18.50
2023-05-06T04:46:23.892Z,18.50
2023-05-06T04:49:26.297Z,18.50
2023-05-06T04:52:28.592Z,18.60
2023-05-06T04:55:30.828Z,18.60
2023-05-06T04:58:33.579Z,18.50
2023-05-06T05:01:36.283Z,18.60
2023-05-06T05:04:38.578Z,18.60
2023-05-06T05:07:40.724Z,18.60
2023-05-06T05:10:46.037Z,18.60
2023-05-06T05:13:48.148Z,18.60
2023-05-06T05:16:50.373Z,18.60
2023-05-06T05:19:53.005Z,18.60
2023-05-06T05:22:55.345Z,18.60
2023-05-06T05:25:57.429Z,18.60
2023-05-06T05:28:59.620Z,18.60
2023-05-06T05:32:02.660Z,18.70
2023-05-06T05:35:05.481Z,18.70
2023-05-06T05:38:07.576Z,18.80
2023-05-06T05:41:09.807Z,18.80
2023-05-06T05:44:18.834Z,18.90
2023-05-06T05:47:20.857Z,19.00
2023-05-06T05:50:23.332Z,19.00
2023-05-06T05:53:25.929Z,19.10
2023-05-06T05:56:28.156Z,19.20
2023-05-06T05:59:30.242Z,19.20
2023-05-06T06:02:34.666Z,19.30
2023-05-06T06:05:37.450Z,19.40
2023-05-06T06:08:39.916Z,19.30
2023-05-06T06:11:42.220Z,19.40
2023-05-06T06:14:48.373Z,19.40
2023-05-06T06:17:50.565Z,19.50
2023-05-06T06:20:53.470Z,19.60
2023-05-06T06:23:55.787Z,19.60
2023-05-06T06:26:58.108Z,19.60
2023-05-06T06:30:00.193Z,19.70
2023-05-06T06:33:02.535Z,19.70
2023-05-06T06:36:04.711Z,19.80
2023-05-06T06:39:06.989Z,19.80
2023-05-06T06:42:09.028Z,19.90
2023-05-06T06:45:11.932Z,19.90
2023-05-06T06:48:14.593Z,20.00
2023-05-06T06:51:16.740Z,20.10
2023-05-06T06:54:19.082Z,20.20
2023-05-06T06:57:21.178Z,20.30
2023-05-06T07:00:23.399Z,20.40
2023-05-06T07:03:25.589Z,20.50
2023-05-06T07:06:27.924Z,20.60
2023-05-06T07:09:29.960Z,20.80
2023-05-06T07:12:32.104Z,21.00
2023-05-06T07:15:34.167Z,21.30
2023-05-06T07:18:36.562Z,21.70
2023-05-06T07:21:38.658Z,22.00
2023-05-06T07:24:40.933Z,22.20
2023-05-06T07:27:43.212Z,22.40
2023-05-06T07:30:45.944Z,22.50
2023-05-06T07:33:48.414Z,22.70
2023-05-06T07:36:50.724Z,22.70
2023-05-06T07:39:52.742Z,22.60
2023-05-06T07:42:54.839Z,22.50
2023-05-06T07:46:02.742Z,22.60
2023-05-06T07:49:04.972Z,22.40
2023-05-06T07:52:07.039Z,22.60
2023-05-06T07:55:10.337Z,22.70
2023-05-06T07:58:12.661Z,23.00
2023-05-06T08:01:14.770Z,23.10
2023-05-06T08:04:17.434Z,23.10
2023-05-06T08:07:20.083Z,23.20
2023-05-06T08:10:25.035Z,23.00
2023-05-06T08:13:28.283Z,23.20
2023-05-06T08:16:30.434Z,23.10
2023-05-06T08:19:32.689Z,23.10
2023-05-06T08:22:34.804Z,22.90
2023-05-06T08:25:36.826Z,23.00
2023-05-06T08:28:38.880Z,23.10
2023-05-06T08:31:40.916Z,23.40
2023-05-06T08:34:43.027Z,23.80
2023-05-06T08:37:45.300Z,24.20
2023-05-06T08:40:49.420Z,24.40
2023-05-06T08:43:54.030Z,24.40
2023-05-06T08:46:56.334Z,24.40
2023-05-06T08:49:58.693Z,24.30
2023-05-06T08:53:01.934Z,24.10
2023-05-06T08:56:08.770Z,24.10
2023-05-06T08:59:13.831Z,24.00
2023-05-06T09:02:15.955Z,23.90
2023-05-06T09:05:19.037Z,23.60
2023-05-06T09:08:21.504Z,23.30
2023-05-06T09:11:28.646Z,23.20
2023-05-06T09:14:31.000Z,23.00
2023-05-06T09:17:33.753Z,23.10
2023-05-06T09:20:40.357Z,23.20
2023-05-06T09:23:42.598Z,23.50
2023-05-06T09:26:45.903Z,24.80
2023-05-06T09:30:21.006Z,26.90
2023-05-06T09:33:23.288Z,29.30
2023-05-06T09:36:27.691Z,30.50
2023-05-06T09:39:29.980Z,31.90
2023-05-06T09:42:32.529Z,32.50
2023-05-06T09:45:35.433Z,33.40
2023-05-06T09:48:37.973Z,33.10
2023-05-06T09:51:42.648Z,32.30
2023-05-06T09:54:47.039Z,31.10
2023-05-06T09:57:50.670Z,30.00
2023-05-06T10:00:54.003Z,28.80
2023-05-06T10:03:58.286Z,27.90
2023-05-06T10:07:01.741Z,27.60
2023-05-06T10:10:07.144Z,26.90
2023-05-06T10:13:10.149Z,26.70
2023-05-06T10:16:14.609Z,27.20
2023-05-06T10:19:23.253Z,28.40
2023-05-06T10:23:02.528Z,29.00
2023-05-06T10:26:10.662Z,28.60
2023-05-06T10:29:14.179Z,28.20
2023-05-06T10:32:17.962Z,28.10
2023-05-06T10:35:46.840Z,28.40
2023-05-06T10:38:56.777Z,29.20
2023-05-06T10:41:59.053Z,30.80
2023-05-06T10:45:05.947Z,32.10
2023-05-06T10:48:09.118Z,32.80
2023-05-06T10:51:17.084Z,32.90
2023-05-06T10:54:19.071Z,33.20
2023-05-06T10:57:26.855Z,33.40
2023-05-06T11:00:34.553Z,33.80
2023-05-06T11:03:36.949Z,32.80
2023-05-06T11:06:47.989Z,31.20
2023-05-06T11:09:57.211Z,30.90
2023-05-06T11:13:19.333Z,31.50
2023-05-06T11:16:47.409Z,31.90
2023-05-06T11:19:49.502Z,31.10
2023-05-06T11:22:52.947Z,29.70
2023-05-06T11:25:58.478Z,29.70
2023-05-06T11:29:02.674Z,29.40
2023-05-06T11:32:19.283Z,29.40
2023-05-06T11:35:23.066Z,29.50
2023-05-06T11:38:46.430Z,29.90
2023-05-06T11:41:48.873Z,29.90
2023-05-06T11:44:53.350Z,29.70
2023-05-06T11:47:55.569Z,29.00
2023-05-06T11:50:58.009Z,28.90
2023-05-06T11:54:07.763Z,28.70
2023-05-06T11:57:10.380Z,28.50
2023-05-06T12:00:13.517Z,28.10
2023-05-06T12:03:15.817Z,27.90
2023-05-06T12:06:19.248Z,27.60
2023-05-06T12:09:23.068Z,27.60
2023-05-06T12:12:27.651Z,27.80
2023-05-06T12:15:30.484Z,27.80
2023-05-06T12:18:33.137Z,27.70
2023-05-06T12:21:38.584Z,27.50
2023-05-06T12:24:41.632Z,27.60
2023-05-06T12:27:45.874Z,27.60
2023-05-06T12:30:48.364Z,27.40
2023-05-06T12:33:50.781Z,27.50
2023-05-06T12:36:53.018Z,27.60
2023-05-06T12:39:58.446Z,27.70
2023-05-06T12:43:01.512Z,27.80
2023-05-06T12:46:08.070Z,27.80
2023-05-06T12:49:10.441Z,27.80
2023-05-06T12:52:12.604Z,27.50
2023-05-06T12:55:14.723Z,27.20
2023-05-06T12:58:19.099Z,27.20
2023-05-06T13:01:22.680Z,27.20
2023-05-06T13:04:25.073Z,27.10
2023-05-06T13:07:27.445Z,27.00
2023-05-06T13:10:29.526Z,26.90
2023-05-06T13:13:31.652Z,26.60
2023-05-06T13:16:35.426Z,26.60
2023-05-06T13:19:37.774Z,26.50
2023-05-06T13:22:53.261Z,26.20
2023-05-06T13:26:04.095Z,26.50
2023-05-06T13:29:07.493Z,26.50
2023-05-06T13:32:09.669Z,26.60
2023-05-06T13:35:12.062Z,26.60
2023-05-06T13:38:14.420Z,26.50
2023-05-06T13:41:16.624Z,26.70
2023-05-06T13:44:22.402Z,26.40
2023-05-06T13:47:25.349Z,26.40
2023-05-06T13:50:27.444Z,26.40
2023-05-06T13:53:30.165Z,26.40
2023-05-06T13:56:34.275Z,26.50
2023-05-06T13:59:36.374Z,26.60
2023-05-06T14:02:39.103Z,26.60
2023-05-06T14:05:41.666Z,26.60
2023-05-06T14:08:43.824Z,26.50
2023-05-06T14:11:46.164Z,26.40
2023-05-06T14:14:48.411Z,26.50
2023-05-06T14:17:50.508Z,26.70
2023-05-06T14:20:52.701Z,26.90
2023-05-06T14:23:54.881Z,27.20
2023-05-06T14:26:57.083Z,27.00
2023-05-06T14:29:59.627Z,26.90
2023-05-06T14:33:02.075Z,27.00
2023-05-06T14:36:04.950Z,27.20
2023-05-06T14:39:07.707Z,26.90
2023-05-06T14:42:10.407Z,26.90
2023-05-06T14:45:13.715Z,26.90
2023-05-06T14:48:16.156Z,26.90
2023-05-06T14:51:18.460Z,27.00
2023-05-06T14:54:20.778Z,26.90
2023-05-06T14:57:23.965Z,26.90
2023-05-06T15:00:27.934Z,27.00
2023-05-06T15:03:30.488Z,26.90
2023-05-06T15:06:33.674Z,26.70
2023-05-06T15:09:35.862Z,26.60
2023-05-06T15:12:38.057Z,26.60
2023-05-06T15:15:40.810Z,26.60
2023-05-06T15:18:45.176Z,26.60
2023-05-06T15:21:47.543Z,26.70
2023-05-06T15:24:53.376Z,26.70
2023-05-06T15:27:55.699Z,26.50
2023-05-06T15:30:57.883Z,26.50
2023-05-06T15:34:00.727Z,26.50
2023-05-06T15:37:03.120Z,26.60
2023-05-06T15:40:10.818Z,26.40
2023-05-06T15:43:17.815Z,26.60
2023-05-06T15:46:29.305Z,26.60
2023-05-06T15:52:36.963Z,26.70
2023-05-06T15:55:46.435Z,26.70
2023-05-06T15:58:51.626Z,26.70
2023-05-06T16:04:59.683Z,26.50
2023-05-06T16:08:01.894Z,26.50
2023-05-06T16:11:05.905Z,26.20
2023-05-06T16:14:08.080Z,26.20
2023-05-06T16:17:10.150Z,26.20
2023-05-06T16:20:13.026Z,26.20
2023-05-06T16:23:16.496Z,26.20
2023-05-06T16:26:18.763Z,26.10
2023-05-06T16:29:21.093Z,25.90
2023-05-06T16:32:23.778Z,25.90
2023-05-06T16:35:26.152Z,25.90
2023-05-06T16:38:29.232Z,25.70
2023-05-06T16:41:32.532Z,25.60
2023-05-06T16:44:37.570Z,25.50
2023-05-06T16:47:40.213Z,25.30
2023-05-06T16:50:43.110Z,25.10
2023-05-06T16:53:45.279Z,25.20
2023-05-06T16:56:52.436Z,25.30
2023-05-06T16:59:55.415Z,25.50
2023-05-06T17:02:57.851Z,25.40
2023-05-06T17:06:00.364Z,25.30
2023-05-06T17:09:02.470Z,25.30
2023-05-06T17:12:05.163Z,25.10
2023-05-06T17:15:08.270Z,25.20
2023-05-06T17:18:10.843Z,25.10
2023-05-06T17:21:13.119Z,25.20
2023-05-06T17:24:15.243Z,25.10
2023-05-06T17:27:20.238Z,25.00
2023-05-06T17:30:22.860Z,24.80
2023-05-06T17:33:25.168Z,24.80
2023-05-06T17:36:27.663Z,24.60
2023-05-06T17:39:29.717Z,24.30
2023-05-06T17:42:31.808Z,24.20
2023-05-06T17:45:33.973Z,24.00
2023-05-06T17:48:36.248Z,24.10
2023-05-06T17:51:38.407Z,23.90
2023-05-06T17:54:40.605Z,23.60
2023-05-06T17:57:42.971Z,23.60
2023-05-06T18:00:45.574Z,23.30
2023-05-06T18:03:47.839Z,23.20
2023-05-06T18:06:49.991Z,23.10
2023-05-06T18:09:52.345Z,22.90
2023-05-06T18:12:55.640Z,22.90
2023-05-06T18:15:58.165Z,23.00
2023-05-06T18:19:04.855Z,23.00
2023-05-06T18:22:07.021Z,23.00
2023-05-06T18:25:10.019Z,23.10
2023-05-06T18:28:12.673Z,23.10
2023-05-06T18:31:15.215Z,23.10
2023-05-06T18:34:20.111Z,23.00
2023-05-06T18:37:22.197Z,22.90
2023-05-06T18:40:24.294Z,22.40
2023-05-06T18:43:26.349Z,22.50
2023-05-06T18:46:28.818Z,22.40
2023-05-06T18:49:31.558Z,22.40
2023-05-06T18:52:36.136Z,22.30
2023-05-06T18:55:38.228Z,22.00
2023-05-06T18:58:40.775Z,21.90
2023-05-06T19:01:42.880Z,21.70
2023-05-06T19:04:45.047Z,21.60
2023-05-06T19:07:47.092Z,21.50
2023-05-06T19:10:49.569Z,21.50
2023-05-06T19:13:52.492Z,21.50
2023-05-06T19:16:54.773Z,21.50
2023-05-06T19:19:57.100Z,21.50
2023-05-06T19:22:59.355Z,21.30
2023-05-06T19:26:01.539Z,21.20
2023-05-06T19:29:04.705Z,21.10
2023-05-06T19:32:06.854Z,20.90
2023-05-06T19:35:09.692Z,20.80
2023-05-06T19:38:12.000Z,20.90
2023-05-06T19:41:14.155Z,20.80
2023-05-06T19:44:16.272Z,20.70
2023-05-06T19:47:18.328Z,20.70
2023-05-06T19:50:20.696Z,20.60
2023-05-06T19:53:24.096Z,20.50
2023-05-06T19:56:26.168Z,20.50
2023-05-06T19:59:28.491Z,20.50
2023-05-06T20:02:33.066Z,20.50
2023-05-06T20:05:36.331Z,20.40
2023-05-06T20:08:38.420Z,20.40
2023-05-06T20:11:40.574Z,20.40
2023-05-06T20:14:42.684Z,20.30
2023-05-06T20:17:45.051Z,20.30
2023-05-06T20:20:47.401Z,20.20
2023-05-06T20:23:49.894Z,20.20
2023-05-06T20:26:52.132Z,20.20
2023-05-06T20:29:54.303Z,20.10
2023-05-06T20:32:56.513Z,20.00
2023-05-06T20:35:58.754Z,19.90
2023-05-06T20:39:01.153Z,19.90
2023-05-06T20:42:03.379Z,19.90
2023-05-06T20:45:06.247Z,19.80
2023-05-06T20:48:08.431Z,19.80
2023-05-06T20:51:10.818Z,19.80
2023-05-06T20:54:13.158Z,19.80
2023-05-06T20:57:16.602Z,19.80
2023-05-06T21:00:19.458Z,19.90
2023-05-06T21:03:21.689Z,19.90
2023-05-06T21:06:23.983Z,19.80
2023-05-06T21:09:29.502Z,19.80
2023-05-06T21:12:33.061Z,19.80
2023-05-06T21:15:35.536Z,19.80
2023-05-06T21:18:37.659Z,19.60
2023-05-06T21:21:40.008Z,19.70
2023-05-06T21:24:42.125Z,19.70
2023-05-06T21:27:45.225Z,19.60
2023-05-06T21:30:47.533Z,19.60
2023-05-06T21:33:55.017Z,19.50
2023-05-06T21:36:57.842Z,19.40
2023-05-06T21:40:02.824Z,19.50
2023-05-06T21:43:05.022Z,19.50
2023-05-06T21:46:07.135Z,19.50
2023-05-06T21:49:09.385Z,19.40
2023-05-06T21:52:11.521Z,19.50
2023-05-06T21:55:13.966Z,19.40
2023-05-06T21:58:16.067Z,19.40
2023-05-06T22:01:19.465Z,19.50
2023-05-06T22:04:21.818Z,19.50
2023-05-06T22:07:24.012Z,19.50
2023-05-06T22:10:26.477Z,19.40
2023-05-06T22:13:28.686Z,19.40
2023-05-06T22:16:30.842Z,19.40
2023-05-06T22:19:32.975Z,19.40
2023-05-06T22:22:35.469Z,19.40
2023-05-06T22:25:38.266Z,19.40
2023-05-06T22:28:40.421Z,19.40
2023-05-06T22:31:42.684Z,19.40
2023-05-06T22:34:45.033Z,19.30
2023-05-06T22:37:47.317Z,19.30
2023-05-06T22:40:49.449Z,19.30
2023-05-06T22:43:51.605Z,19.30
2023-05-06T22:46:54.979Z,19.30
2023-05-06T22:49:57.357Z,19.30
2023-05-06T22:53:04.824Z,19.20
2023-05-06T22:56:12.733Z,19.20
2023-05-06T22:59:15.045Z,19.20
2023-05-06T23:02:17.272Z,19.20
2023-05-06T23:05:19.364Z,19.20
2023-05-06T23:08:21.652Z,19.20
2023-05-06T23:11:23.729Z,19.20
2023-05-06T23:14:25.923Z,19.10
2023-05-06T23:17:28.060Z,19.10
2023-05-06T23:20:30.336Z,19.00
2023-05-06T23:23:33.089Z,19.00
2023-05-06T23:26:35.300Z,19.00
2023-05-06T23:29:37.375Z,19.00
2023-05-06T23:32:40.099Z,19.00
2023-05-06T23:35:42.242Z,19.00
2023-05-06T23:38:44.510Z,19.00
2023-05-06T23:41:46.523Z,19.00
2023-05-06T23:44:51.437Z,19.10
2023-05-06T23:47:54.458Z,19.10
2023-05-06T23:50:56.668Z,19.00
2023-05-06T23:53:58.721Z,19.00
2023-05-06T23:57:03.110Z,19.00
